createdAt,value
2022-10-13T00:01:16.640Z,15.90
2022-10-13T00:03:48.607Z,18.00
2022-10-13T00:06:19.532Z,15.60
2022-10-13T00:08:48.362Z,14.60
2022-10-13T00:11:22.123Z,14.90
2022-10-13T00:16:20.681Z,19.30
2022-10-13T00:18:49.626Z,20.30
2022-10-13T00:21:21.622Z,17.20
2022-10-13T00:23:50.851Z,16.50
2022-10-13T00:26:19.410Z,17.00
2022-10-13T00:28:52.051Z,20.10
2022-10-13T00:31:23.329Z,17.30
2022-10-13T00:33:52.882Z,17.20
2022-10-13T00:36:23.018Z,16.50
2022-10-13T00:38:52.589Z,20.20
2022-10-13T00:41:21.243Z,19.60
2022-10-13T00:44:01.315Z,19.20
2022-10-13T00:46:35.359Z,15.10
2022-10-13T00:49:14.378Z,14.80
2022-10-13T00:51:47.241Z,17.40
2022-10-13T00:54:20.818Z,16.90
2022-10-13T00:56:51.566Z,17.20
2022-10-13T00:59:23.593Z,13.00
2022-10-13T01:01:52.066Z,16.30
2022-10-13T01:04:23.550Z,18.30
2022-10-13T01:06:52.602Z,17.50
2022-10-13T01:09:20.396Z,21.60
2022-10-13T01:12:11.120Z,17.60
2022-10-13T01:14:46.373Z,27.10
2022-10-13T01:17:26.302Z,17.10
2022-10-13T01:20:22.895Z,20.60
2022-10-13T01:23:28.734Z,17.30
2022-10-13T01:26:15.304Z,17.40
2022-10-13T01:29:00.423Z,19.40
2022-10-13T01:31:37.029Z,18.10
2022-10-13T01:34:20.714Z,19.40
2022-10-13T01:37:03.034Z,16.00
2022-10-13T01:39:57.727Z,16.20
2022-10-13T01:42:34.363Z,19.90
2022-10-13T01:45:03.689Z,19.60
2022-10-13T01:47:35.445Z,15.00
2022-10-13T01:50:04.468Z,13.50
2022-10-13T01:52:37.439Z,19.70
2022-10-13T01:55:08.387Z,18.70
2022-10-13T01:57:44.894Z,15.10
2022-10-13T02:00:16.671Z,14.40
2022-10-13T02:03:03.016Z,18.70
2022-10-13T02:05:36.710Z,17.80
2022-10-13T02:10:49.656Z,18.10
2022-10-13T02:13:22.440Z,15.80
2022-10-13T02:15:54.384Z,15.70
2022-10-13T02:18:27.642Z,16.80
2022-10-13T02:20:56.014Z,19.60
2022-10-13T02:23:24.434Z,17.30
2022-10-13T02:25:52.343Z,15.50
2022-10-13T02:28:20.439Z,15.20
2022-10-13T02:30:48.995Z,14.00
2022-10-13T02:33:16.889Z,18.80
2022-10-13T02:35:44.863Z,21.60
2022-10-13T02:38:13.673Z,17.60
2022-10-13T02:40:41.483Z,17.20
2022-10-13T02:43:09.503Z,14.40
2022-10-13T02:45:37.293Z,19.60
2022-10-13T02:48:05.469Z,17.70
2022-10-13T02:50:33.356Z,18.50
2022-10-13T02:53:01.230Z,15.30
2022-10-13T02:55:29.310Z,18.50
2022-10-13T02:57:57.593Z,15.50
2022-10-13T03:00:26.121Z,19.90
2022-10-13T03:02:54.305Z,21.60
2022-10-13T03:05:22.362Z,20.10
2022-10-13T03:07:50.298Z,18.00
2022-10-13T03:10:18.259Z,18.10
2022-10-13T03:12:46.046Z,15.40
2022-10-13T03:15:14.110Z,17.00
2022-10-13T03:17:41.899Z,20.30
2022-10-13T03:20:10.131Z,19.20
2022-10-13T03:22:37.863Z,19.50
2022-10-13T03:25:06.343Z,17.50
2022-10-13T03:27:34.371Z,19.90
2022-10-13T03:30:02.673Z,19.50
2022-10-13T03:32:31.736Z,19.10
2022-10-13T03:34:59.609Z,18.80
2022-10-13T03:37:29.678Z,16.40
2022-10-13T03:39:57.572Z,21.70
2022-10-13T03:42:25.431Z,19.30
2022-10-13T03:44:56.361Z,17.70
2022-10-13T03:47:24.549Z,18.40
2022-10-13T03:49:55.242Z,19.50
2022-10-13T03:52:23.284Z,17.40
2022-10-13T03:54:51.240Z,18.50
2022-10-13T03:57:19.040Z,19.90
2022-10-13T03:59:47.176Z,20.30
2022-10-13T04:02:15.044Z,18.80
2022-10-13T04:04:42.949Z,17.30
2022-10-13T04:07:10.663Z,18.20
2022-10-13T04:09:38.499Z,19.70
2022-10-13T04:12:06.369Z,19.90
2022-10-13T04:14:34.248Z,17.80
2022-10-13T04:17:02.044Z,19.20
2022-10-13T04:19:29.883Z,18.80
2022-10-13T04:21:57.656Z,19.90
2022-10-13T04:24:25.431Z,20.00
2022-10-13T04:26:53.294Z,21.10
2022-10-13T04:29:21.112Z,16.60
2022-10-13T04:31:48.987Z,18.00
2022-10-13T04:34:16.726Z,17.80
2022-10-13T04:36:44.464Z,20.30
2022-10-13T04:39:12.238Z,18.60
2022-10-13T04:41:40.044Z,19.50
2022-10-13T04:44:08.786Z,17.70
2022-10-13T04:46:36.600Z,17.50
2022-10-13T04:49:04.845Z,17.50
2022-10-13T04:51:32.904Z,20.60
2022-10-13T04:54:02.772Z,19.60
2022-10-13T04:56:30.592Z,20.00
2022-10-13T04:58:58.355Z,20.40
2022-10-13T05:01:26.797Z,19.60
2022-10-13T05:03:56.883Z,22.10
2022-10-13T05:06:30.437Z,20.40
2022-10-13T05:08:58.586Z,20.10
2022-10-13T05:11:28.560Z,23.40
2022-10-13T05:13:57.475Z,20.00
2022-10-13T05:16:25.803Z,19.30
2022-10-13T05:18:55.185Z,19.70
2022-10-13T05:21:26.811Z,18.90
2022-10-13T05:23:56.945Z,18.20
2022-10-13T05:26:29.023Z,19.90
2022-10-13T05:29:01.432Z,18.60
2022-10-13T05:31:31.239Z,22.10
2022-10-13T05:33:59.793Z,19.10
2022-10-13T05:36:31.428Z,20.30
2022-10-13T05:39:01.917Z,20.30
2022-10-13T05:41:30.995Z,16.20
2022-10-13T05:44:04.459Z,17.30
2022-10-13T05:46:32.483Z,19.70
2022-10-13T05:49:00.355Z,19.20
2022-10-13T05:51:35.081Z,20.40
2022-10-13T05:54:09.166Z,19.90
2022-10-13T05:56:44.747Z,15.10
2022-10-13T05:59:15.153Z,18.50
2022-10-13T06:01:44.271Z,16.00
2022-10-13T06:04:19.457Z,21.30
2022-10-13T06:06:49.773Z,20.30
2022-10-13T06:09:18.503Z,18.70
2022-10-13T06:11:46.498Z,19.00
2022-10-13T06:14:14.381Z,21.40
2022-10-13T06:16:42.324Z,23.60
2022-10-13T06:19:10.189Z,20.10
2022-10-13T06:21:37.976Z,19.30
2022-10-13T06:24:06.039Z,20.20
2022-10-13T06:26:33.897Z,24.50
2022-10-13T06:29:01.691Z,17.40
2022-10-13T06:31:30.070Z,19.60
2022-10-13T06:33:59.091Z,20.10
2022-10-13T06:36:27.324Z,20.50
2022-10-13T06:38:55.378Z,19.00
2022-10-13T06:41:23.374Z,19.90
2022-10-13T06:43:51.280Z,18.20
2022-10-13T06:46:19.144Z,22.30
2022-10-13T06:48:50.071Z,20.40
2022-10-13T06:51:18.215Z,20.50
2022-10-13T06:53:46.153Z,18.30
2022-10-13T06:56:14.542Z,18.40
2022-10-13T06:58:42.211Z,19.40
2022-10-13T07:01:13.274Z,16.90
2022-10-13T07:03:41.211Z,20.10
2022-10-13T07:06:08.995Z,19.10
2022-10-13T07:08:36.828Z,16.10
2022-10-13T07:11:16.422Z,18.60
2022-10-13T07:13:46.678Z,18.30
2022-10-13T07:16:15.849Z,18.40
2022-10-13T07:18:44.234Z,19.00
2022-10-13T07:21:12.118Z,16.80
2022-10-13T07:23:41.105Z,18.60
2022-10-13T07:26:15.938Z,17.10
2022-10-13T07:28:44.954Z,18.10
2022-10-13T07:31:15.974Z,19.40
2022-10-13T07:33:46.016Z,20.30
2022-10-13T07:36:14.482Z,17.30
2022-10-13T07:38:42.328Z,17.80
2022-10-13T07:41:12.578Z,20.00
2022-10-13T07:43:40.808Z,21.00
2022-10-13T07:46:08.995Z,17.50
2022-10-13T07:48:36.926Z,18.50
2022-10-13T07:51:10.393Z,18.00
2022-10-13T07:53:38.988Z,17.00
2022-10-13T07:56:08.862Z,16.00
2022-10-13T07:58:38.273Z,20.50
2022-10-13T08:01:07.013Z,20.90
2022-10-13T08:06:05.948Z,23.00
2022-10-13T08:08:34.904Z,25.70
2022-10-13T08:11:06.768Z,27.10
2022-10-13T08:13:35.424Z,27.30
2022-10-13T08:16:03.937Z,31.80
2022-10-13T08:18:32.316Z,36.20
2022-10-13T08:23:50.852Z,37.20
2022-10-13T08:26:22.598Z,40.00
2022-10-13T08:29:09.464Z,38.50
2022-10-13T08:31:39.003Z,42.10
2022-10-13T08:34:07.264Z,35.00
2022-10-13T08:36:35.308Z,34.40
2022-10-13T08:39:04.027Z,30.60
2022-10-13T08:41:36.382Z,30.80
2022-10-13T08:47:02.503Z,27.40
2022-10-13T08:49:30.854Z,25.50
2022-10-13T08:51:59.173Z,26.90
2022-10-13T08:54:27.111Z,27.40
2022-10-13T08:56:55.466Z,28.10
2022-10-13T08:59:23.585Z,29.40
2022-10-13T09:01:55.937Z,27.50
2022-10-13T09:04:30.050Z,32.60
2022-10-13T09:07:10.208Z,31.00
2022-10-13T09:09:38.526Z,28.00
2022-10-13T09:12:06.833Z,29.40
2022-10-13T09:14:37.372Z,27.90
2022-10-13T09:17:26.350Z,27.80
2022-10-13T09:20:18.353Z,27.00
2022-10-13T09:23:04.866Z,26.60
2022-10-13T09:25:44.589Z,34.50
2022-10-13T09:28:23.484Z,25.90
2022-10-13T09:31:25.654Z,24.90
2022-10-13T09:34:23.260Z,26.70
2022-10-13T09:37:16.743Z,25.60
2022-10-13T09:39:44.899Z,29.90
2022-10-13T09:42:29.157Z,27.40
2022-10-13T09:45:00.315Z,25.40
2022-10-13T09:47:31.870Z,22.80
2022-10-13T09:50:25.024Z,23.80
2022-10-13T09:52:54.292Z,26.60
2022-10-13T09:55:36.293Z,23.40
2022-10-13T09:58:17.501Z,26.80
2022-10-13T10:00:46.159Z,27.80
2022-10-13T10:03:20.084Z,28.20
2022-10-13T10:05:58.157Z,25.90
2022-10-13T10:09:01.547Z,26.30
2022-10-13T10:11:33.758Z,25.30
2022-10-13T10:14:36.511Z,25.60
2022-10-13T10:17:07.017Z,23.50
2022-10-13T10:19:47.894Z,25.70
2022-10-13T10:22:28.703Z,22.20
2022-10-13T10:25:22.552Z,21.60
2022-10-13T10:28:16.871Z,23.10
2022-10-13T10:31:20.897Z,23.20
2022-10-13T10:33:48.781Z,22.60
2022-10-13T10:36:31.392Z,21.60
2022-10-13T10:39:32.351Z,20.90
2022-10-13T10:42:07.896Z,25.90
2022-10-13T10:47:27.434Z,20.00
2022-10-13T10:50:01.876Z,20.70
2022-10-13T10:53:09.218Z,18.40
2022-10-13T10:55:51.152Z,18.60
2022-10-13T10:58:56.873Z,19.50
2022-10-13T11:01:48.554Z,18.40
2022-10-13T11:04:38.744Z,19.20
2022-10-13T11:07:29.830Z,17.00
2022-10-13T11:09:57.731Z,18.70
2022-10-13T11:12:44.948Z,24.10
2022-10-13T11:15:22.618Z,19.10
2022-10-13T11:17:50.894Z,23.50
2022-10-13T11:20:21.389Z,18.90
2022-10-13T11:22:58.480Z,20.30
2022-10-13T11:25:41.722Z,21.80
2022-10-13T11:28:22.089Z,20.80
2022-10-13T11:30:57.617Z,20.00
2022-10-13T11:33:40.792Z,20.40
2022-10-13T11:36:48.678Z,19.60
2022-10-13T11:39:28.634Z,21.90
2022-10-13T11:42:12.186Z,18.00
2022-10-13T11:45:02.279Z,21.80
2022-10-13T11:47:55.815Z,18.20
2022-10-13T11:50:39.084Z,21.50
2022-10-13T11:53:19.137Z,21.10
2022-10-13T11:55:53.790Z,18.20
2022-10-13T11:58:27.237Z,18.70
2022-10-13T12:01:13.599Z,51.30
2022-10-13T12:03:44.450Z,22.00
2022-10-13T12:06:35.054Z,18.30
2022-10-13T12:09:14.590Z,18.30
2022-10-13T12:11:43.748Z,17.30
2022-10-13T12:14:24.509Z,18.10
2022-10-13T12:19:27.153Z,19.60
2022-10-13T12:21:57.864Z,19.50
2022-10-13T12:24:29.160Z,17.90
2022-10-13T12:26:57.803Z,18.30
2022-10-13T12:29:33.390Z,17.60
2022-10-13T12:32:18.069Z,22.50
2022-10-13T12:34:45.924Z,16.30
2022-10-13T12:37:36.882Z,14.70
2022-10-13T12:40:05.610Z,15.90
2022-10-13T12:42:36.562Z,16.20
2022-10-13T12:45:06.293Z,14.70
2022-10-13T12:47:40.404Z,15.00
2022-10-13T12:50:29.617Z,16.50
2022-10-13T12:53:21.973Z,16.10
2022-10-13T12:56:01.352Z,16.30
2022-10-13T12:58:34.939Z,17.10
2022-10-13T13:01:27.552Z,16.40
2022-10-13T13:03:59.002Z,17.20
2022-10-13T13:06:30.309Z,15.30
2022-10-13T13:09:30.351Z,14.40
2022-10-13T13:12:13.349Z,15.90
2022-10-13T13:14:43.941Z,18.20
2022-10-13T13:17:13.074Z,18.40
2022-10-13T13:19:42.939Z,17.10
2022-10-13T13:22:11.208Z,17.00
2022-10-13T13:24:40.465Z,17.00
2022-10-13T13:27:27.178Z,17.40
2022-10-13T13:29:55.679Z,15.10
2022-10-13T13:32:27.051Z,16.80
2022-10-13T13:34:54.851Z,16.20
2022-10-13T13:37:58.409Z,21.60
2022-10-13T13:40:28.337Z,15.50
2022-10-13T13:42:56.299Z,15.00
2022-10-13T13:45:27.397Z,16.20
2022-10-13T13:47:59.680Z,14.40
2022-10-13T13:50:34.534Z,15.90
2022-10-13T13:53:03.026Z,17.60
2022-10-13T13:55:31.610Z,15.50
2022-10-13T13:57:59.491Z,16.80
2022-10-13T14:00:27.259Z,15.30
2022-10-13T14:02:58.054Z,14.70
2022-10-13T14:05:26.132Z,19.90
2022-10-13T14:07:56.781Z,18.40
2022-10-13T14:10:26.067Z,24.60
2022-10-13T14:12:53.953Z,23.00
2022-10-13T14:15:24.499Z,20.10
2022-10-13T14:17:54.786Z,20.50
2022-10-13T14:20:23.496Z,15.30
2022-10-13T14:22:51.334Z,20.70
2022-10-13T14:25:19.558Z,15.20
2022-10-13T14:27:47.368Z,15.60
2022-10-13T14:30:15.469Z,15.10
2022-10-13T14:32:43.377Z,15.50
2022-10-13T14:35:11.369Z,16.30
2022-10-13T14:37:39.665Z,15.80
2022-10-13T14:40:08.126Z,14.70
2022-10-13T14:42:35.901Z,14.20
2022-10-13T14:45:06.310Z,15.30
2022-10-13T14:47:34.238Z,13.40
2022-10-13T14:50:02.097Z,13.20
2022-10-13T14:52:29.949Z,16.90
2022-10-13T14:54:57.880Z,14.10
2022-10-13T14:57:25.750Z,15.20
2022-10-13T14:59:56.773Z,15.40
2022-10-13T15:02:27.525Z,15.30
2022-10-13T15:04:55.369Z,23.70
2022-10-13T15:07:23.438Z,14.40
2022-10-13T15:10:04.267Z,12.70
2022-10-13T15:12:33.147Z,17.40
2022-10-13T15:15:00.972Z,16.40
2022-10-13T15:17:30.836Z,18.60
2022-10-13T15:19:58.891Z,18.70
2022-10-13T15:22:26.837Z,18.70
2022-10-13T15:24:54.743Z,20.60
2022-10-13T15:27:23.366Z,22.40
2022-10-13T15:29:51.130Z,17.90
2022-10-13T15:32:20.416Z,23.40
2022-10-13T15:34:48.539Z,18.20
2022-10-13T15:37:16.329Z,23.00
2022-10-13T15:39:44.112Z,18.00
2022-10-13T15:42:12.159Z,19.10
2022-10-13T15:45:08.181Z,20.10
2022-10-13T15:47:27.906Z,19.30
2022-10-13T15:49:55.781Z,21.10
2022-10-13T15:52:24.081Z,19.10
2022-10-13T15:54:52.236Z,15.90
2022-10-13T15:57:20.051Z,15.70
2022-10-13T15:59:47.882Z,17.00
2022-10-13T16:02:15.820Z,16.00
2022-10-13T16:04:43.517Z,14.90
2022-10-13T16:07:11.433Z,18.60
2022-10-13T16:09:39.160Z,16.10
2022-10-13T16:12:07.189Z,14.50
2022-10-13T16:14:35.035Z,15.70
2022-10-13T16:17:03.793Z,16.10
2022-10-13T16:19:31.563Z,14.50
2022-10-13T16:21:59.368Z,16.50
2022-10-13T16:24:28.526Z,15.50
2022-10-13T16:26:56.472Z,18.40
2022-10-13T16:29:24.227Z,19.50
2022-10-13T16:31:52.578Z,23.40
2022-10-13T16:34:21.340Z,18.00
2022-10-13T16:36:49.667Z,23.70
2022-10-13T16:39:17.776Z,19.20
2022-10-13T16:41:46.830Z,20.80
2022-10-13T16:44:15.131Z,19.80
2022-10-13T16:46:43.416Z,18.30
2022-10-13T16:49:11.794Z,17.80
2022-10-13T16:51:39.545Z,18.20
2022-10-13T16:54:07.451Z,18.50
2022-10-13T16:56:35.199Z,18.70
2022-10-13T16:59:05.336Z,20.00
2022-10-13T17:01:34.710Z,17.50
2022-10-13T17:04:04.022Z,20.80
2022-10-13T17:06:32.352Z,20.40
2022-10-13T17:09:03.291Z,22.10
2022-10-13T17:11:32.764Z,20.50
2022-10-13T17:14:01.653Z,18.70
2022-10-13T17:16:30.505Z,20.40
2022-10-13T17:18:59.021Z,18.30
2022-10-13T17:21:26.858Z,20.40
2022-10-13T17:23:56.505Z,20.50
2022-10-13T17:26:24.617Z,20.50
2022-10-13T17:28:53.552Z,24.30
2022-10-13T17:31:24.131Z,28.60
2022-10-13T17:33:52.876Z,23.80
2022-10-13T17:36:29.231Z,29.60
2022-10-13T17:39:04.292Z,25.50
2022-10-13T17:41:33.944Z,31.80
2022-10-13T17:44:01.685Z,23.10
2022-10-13T17:46:37.491Z,25.20
2022-10-13T17:49:09.877Z,22.90
2022-10-13T17:51:38.296Z,24.70
2022-10-13T17:54:09.083Z,26.30
2022-10-13T17:56:39.316Z,23.70
2022-10-13T17:59:07.432Z,22.70
2022-10-13T18:01:35.859Z,26.20
2022-10-13T18:04:11.324Z,20.20
2022-10-13T18:06:41.029Z,20.20
2022-10-13T18:09:15.533Z,21.30
2022-10-13T18:11:49.665Z,23.20
2022-10-13T18:14:20.131Z,24.00
2022-10-13T18:16:48.864Z,23.90
2022-10-13T18:19:17.157Z,23.60
2022-10-13T18:21:45.019Z,23.40
2022-10-13T18:24:12.949Z,22.60
2022-10-13T18:26:41.331Z,24.40
2022-10-13T18:29:11.365Z,28.50
2022-10-13T18:31:40.788Z,23.80
2022-10-13T18:34:12.369Z,23.60
2022-10-13T18:36:47.300Z,23.80
2022-10-13T18:39:20.683Z,23.60
2022-10-13T18:41:50.123Z,26.50
2022-10-13T18:44:19.369Z,26.00
2022-10-13T18:46:51.628Z,23.50
2022-10-13T18:49:30.729Z,23.50
2022-10-13T18:52:02.394Z,31.20
2022-10-13T18:54:31.129Z,31.20
2022-10-13T18:56:59.030Z,30.10
2022-10-13T18:59:27.076Z,33.80
2022-10-13T19:01:54.884Z,35.50
2022-10-13T19:04:22.756Z,31.10
2022-10-13T19:06:50.503Z,32.50
2022-10-13T19:09:18.320Z,33.00
2022-10-13T19:11:46.129Z,29.00
2022-10-13T19:14:14.018Z,25.30
2022-10-13T19:16:44.159Z,30.40
2022-10-13T19:19:12.423Z,27.80
2022-10-13T19:21:40.797Z,31.20
2022-10-13T19:24:09.887Z,25.70
2022-10-13T19:26:38.617Z,29.80
2022-10-13T19:29:12.896Z,36.90
2022-10-13T19:34:10.922Z,29.30
2022-10-13T19:36:42.808Z,30.70
2022-10-13T19:39:23.163Z,27.30
2022-10-13T19:41:53.400Z,27.30
2022-10-13T19:44:23.739Z,31.70
2022-10-13T19:46:53.577Z,30.40
2022-10-13T19:49:26.293Z,32.30
2022-10-13T19:51:56.073Z,29.70
2022-10-13T19:54:24.541Z,31.00
2022-10-13T19:56:52.586Z,31.60
2022-10-13T19:59:20.421Z,25.50
2022-10-13T20:01:48.278Z,26.00
2022-10-13T20:04:18.695Z,28.10
2022-10-13T20:06:48.467Z,29.00
2022-10-13T20:09:17.675Z,25.30
2022-10-13T20:11:46.963Z,26.90
2022-10-13T20:14:15.019Z,32.90
2022-10-13T20:16:42.917Z,29.80
2022-10-13T20:19:13.706Z,30.70
2022-10-13T20:21:41.679Z,30.10
2022-10-13T20:24:09.586Z,26.70
2022-10-13T20:26:37.788Z,31.70
2022-10-13T20:29:05.673Z,27.50
2022-10-13T20:31:33.600Z,27.90
2022-10-13T20:34:01.864Z,30.80
2022-10-13T20:36:29.628Z,25.40
2022-10-13T20:38:57.980Z,26.10
2022-10-13T20:41:30.659Z,25.30
2022-10-13T20:44:01.076Z,29.50
2022-10-13T20:46:29.058Z,28.60
2022-10-13T20:49:13.461Z,32.20
2022-10-13T20:51:43.275Z,44.30
2022-10-13T20:54:13.857Z,43.30
2022-10-13T20:56:41.963Z,43.30
2022-10-13T20:59:12.656Z,34.90
2022-10-13T21:01:41.011Z,34.00
2022-10-13T21:04:09.684Z,30.60
2022-10-13T21:06:37.463Z,35.50
2022-10-13T21:09:06.390Z,31.30
2022-10-13T21:11:35.751Z,27.60
2022-10-13T21:14:06.934Z,27.30
2022-10-13T21:16:38.555Z,29.40
2022-10-13T21:19:07.013Z,28.90
2022-10-13T21:21:35.895Z,31.20
2022-10-13T21:24:06.722Z,26.40
2022-10-13T21:26:35.384Z,26.40
2022-10-13T21:29:03.985Z,30.60
2022-10-13T21:31:31.938Z,29.40
2022-10-13T21:34:01.019Z,31.00
2022-10-13T21:36:31.408Z,30.60
2022-10-13T21:39:02.680Z,28.70
2022-10-13T21:41:31.720Z,31.40
2022-10-13T21:43:59.712Z,33.30
2022-10-13T21:46:30.558Z,27.70
2022-10-13T21:49:01.417Z,31.90
2022-10-13T21:51:30.544Z,33.60
2022-10-13T21:54:05.912Z,33.30
2022-10-13T21:56:34.713Z,30.70
2022-10-13T21:59:02.822Z,32.90
2022-10-13T22:01:30.668Z,34.30
2022-10-13T22:04:00.798Z,34.70
2022-10-13T22:06:30.852Z,32.30
2022-10-13T22:09:01.991Z,31.10
2022-10-13T22:11:32.535Z,36.20
2022-10-13T22:14:00.423Z,34.60
2022-10-13T22:16:31.417Z,36.20
2022-10-13T22:18:59.253Z,38.30
2022-10-13T22:21:33.410Z,41.20
2022-10-13T22:24:03.580Z,38.60
2022-10-13T22:26:33.830Z,40.50
2022-10-13T22:34:15.020Z,34.50
2022-10-13T22:56:07.485Z,41.40
2022-10-13T22:57:07.092Z,39.60
2022-10-13T23:00:43.552Z,36.80
2022-10-13T23:20:28.099Z,34.90
2022-10-13T23:39:02.002Z,32.60
2022-10-13T23:42:09.111Z,32.10
